createdAt,value
2023-03-26T00:18:13.493Z,0.93
2023-03-26T00:38:15.039Z,0.80
2023-03-26T00:58:16.655Z,0.80
2023-03-26T01:18:36.502Z,0.80
2023-03-26T01:38:56.495Z,1.00
2023-03-26T01:59:16.841Z,0.50
2023-03-26T02:19:36.993Z,0.38
2023-03-26T02:39:57.551Z,0.40
2023-03-26T03:00:17.715Z,0.57
2023-03-26T03:20:22.374Z,0.60
2023-03-26T03:40:23.970Z,0.68
2023-03-26T04:00:27.159Z,0.70
2023-03-26T04:20:48.691Z,0.70
2023-03-26T04:41:03.988Z,1.00
2023-03-26T05:01:17.949Z,0.95
2023-03-26T05:21:21.499Z,0.90
2023-03-26T05:41:23.477Z,0.73
2023-03-26T06:01:25.489Z,1.00
2023-03-26T06:21:46.142Z,0.70
2023-03-26T06:42:10.257Z,0.60
2023-03-26T07:02:38.348Z,0.90
2023-03-26T07:22:58.482Z,1.08
2023-03-26T07:43:20.531Z,1.10
2023-03-26T08:03:42.630Z,1.15
2023-03-26T08:24:02.574Z,1.23
2023-03-26T08:44:04.248Z,1.45
2023-03-26T09:04:05.857Z,1.13
2023-03-26T09:24:07.436Z,0.90
2023-03-26T09:44:09.169Z,1.00
2023-03-26T10:04:10.799Z,0.73
2023-03-26T10:24:15.127Z,0.70
2023-03-26T10:48:45.972Z,0.65
2023-03-26T11:17:04.484Z,0.80
2023-03-26T11:37:06.469Z,0.60
2023-03-26T11:57:08.109Z,0.50
2023-03-26T12:17:09.717Z,0.40
2023-03-26T12:37:11.807Z,0.40
2023-03-26T12:57:13.613Z,0.40
2023-03-26T13:17:15.468Z,0.70
2023-03-26T13:37:19.110Z,1.15
2023-03-26T13:57:38.955Z,1.20
2023-03-26T14:38:19.177Z,1.60
2023-03-26T14:58:39.212Z,1.80
2023-03-26T15:18:59.072Z,2.40
2023-03-26T15:39:19.384Z,2.20
2023-03-26T15:59:20.960Z,1.90
2023-03-26T16:19:25.583Z,1.92
2023-03-26T16:39:27.084Z,2.13
2023-03-26T18:22:25.852Z,1.00
2023-03-26T18:42:33.345Z,0.80
2023-03-26T19:02:35.548Z,0.80
2023-03-26T19:22:38.427Z,1.20
2023-03-26T19:42:43.954Z,1.00
2023-03-26T20:03:02.027Z,1.30
2023-03-26T20:23:03.744Z,1.40
2023-03-26T20:43:05.223Z,1.60
2023-03-26T21:03:06.913Z,1.50
2023-03-26T21:23:10.983Z,1.55
2023-03-26T21:43:12.629Z,2.85
2023-03-26T22:03:14.190Z,3.10
2023-03-26T22:23:15.821Z,2.53
2023-03-26T22:43:17.303Z,1.70
2023-03-26T23:03:37.510Z,1.77
2023-03-26T23:23:57.257Z,2.72
2023-03-26T23:44:17.784Z,2.92
